Time;durP1;ratioP1;P1;durP2;ratioP2;P2;SDS_P1;SDS_P2;PMS_P1;PMS_P2;Temp;Humidity;BMP_temperature;BMP_pressure;BME280_temperature;BME280_humidity;BME280_pressure;Samples;Min_cycle;Max_cycle;Signal;HPM_P1;HPM_P2
2024/04/01 00:02:34;;;;;;;;;9.00;7.00;;;;;14.79;51.64;98889.82;113156;224;169990;-54
2024/04/01 00:05:16;;;;;;;;;12.00;9.00;;;;;14.69;51.91;98887.90;113286;224;39681;-51
2024/04/01 00:07:52;;;;;;;;;14.00;10.50;;;;;14.67;51.83;98884.45;113135;224;168516;-53
2024/04/01 00:10:32;;;;;;;;;12.00;9.00;;;;;14.64;52.05;98886.91;113305;224;41763;-51
2024/04/01 00:13:08;;;;;;;;;12.00;9.00;;;;;14.59;52.28;98891.36;113096;224;168970;-52
2024/04/01 00:15:48;;;;;;;;;9.00;7.00;;;;;14.57;52.37;98891.39;113336;224;39993;-52
2024/04/01 00:18:23;;;;;;;;;10.00;6.50;;;;;14.49;52.59;98892.59;113321;224;41872;-53
2024/04/01 00:21:02;;;;;;;;;8.00;7.00;;;;;14.44;52.62;98891.10;113239;224;168352;-51
2024/04/01 00:23:39;;;;;;;;;11.00;7.00;;;;;14.43;52.66;98893.48;113445;224;41286;-55
2024/04/01 00:26:19;;;;;;;;;8.50;5.50;;;;;14.43;52.62;98896.73;113184;224;169213;-55
2024/04/01 00:28:57;;;;;;;;;6.00;5.00;;;;;14.46;52.64;98898.80;113366;224;39611;-53
2024/04/01 00:31:35;;;;;;;;;11.00;6.67;;;;;14.45;52.57;98893.63;113139;224;168572;-51
2024/04/01 00:34:14;;;;;;;;;9.00;7.00;;;;;14.45;52.73;98892.98;113330;225;40565;-53
2024/04/01 00:36:54;;;;;;;;;11.00;7.00;;;;;14.46;52.60;98893.64;113180;225;168554;-53
2024/04/01 00:39:31;;;;;;;;;10.50;6.00;;;;;14.45;52.74;98895.36;113319;228;42050;-55
2024/04/01 00:42:07;;;;;;;;;13.00;9.00;;;;;14.40;52.87;98891.65;113298;228;40256;-55
2024/04/01 00:44:44;;;;;;;;;11.33;8.00;;;;;14.38;52.94;98890.05;113076;228;168566;-54
2024/04/01 00:47:21;;;;;;;;;10.00;7.00;;;;;14.40;53.02;98889.42;113300;228;40026;-54
2024/04/01 00:50:03;;;;;;;;;8.00;6.00;;;;;14.39;52.95;98885.44;113082;225;169404;-51
2024/04/01 00:52:41;;;;;;;;;14.00;9.67;;;;;14.39;52.93;98891.25;113141;229;41732;-51
2024/04/01 00:55:17;;;;;;;;;12.00;9.00;;;;;14.41;52.93;98890.85;113159;225;168813;-55
2024/04/01 00:57:54;;;;;;;;;10.00;6.00;;;;;14.43;52.93;98889.30;113298;229;40593;-55
2024/04/01 01:00:33;;;;;;;;;8.00;6.00;;;;;14.45;52.88;98887.64;113326;228;40284;-52
2024/04/01 01:03:14;;;;;;;;;9.00;7.00;;;;;14.46;52.78;98887.28;113106;229;171401;-52
2024/04/01 01:05:52;;;;;;;;;10.00;8.00;;;;;14.43;52.94;98890.65;113351;224;39872;-53
2024/04/01 01:08:38;;;;;;;;;9.00;7.00;;;;;14.40;52.93;98889.09;113133;225;168673;-52
2024/04/01 01:11:14;;;;;;;;;11.00;7.00;;;;;14.38;53.17;98888.25;113316;224;39953;-52
2024/04/01 01:14:00;;;;;;;;;9.00;5.75;;;;;14.37;53.10;98889.21;113089;228;169288;-54
2024/04/01 01:16:39;;;;;;;;;7.00;5.50;;;;;14.40;53.23;98886.55;113290;224;40502;-54
2024/04/01 01:19:24;;;;;;;;;10.00;6.50;;;;;14.40;53.16;98889.38;113199;224;168370;-52
2024/04/01 01:22:09;;;;;;;;;9.00;7.00;;;;;14.39;53.20;98887.98;113325;224;40340;-52
2024/04/01 01:24:47;;;;;;;;;7.00;5.00;;;;;14.35;53.14;98885.60;113344;228;39956;-53
2024/04/01 01:27:20;;;;;;;;;7.50;5.50;;;;;14.33;53.31;98890.58;113150;225;40697;-53
2024/04/01 01:29:55;;;;;;;;;8.33;6.00;;;;;14.28;53.28;98889.76;113403;224;40531;-53
2024/04/01 01:32:30;;;;;;;;;8.50;5.50;;;;;14.24;53.53;98885.62;113151;224;168448;-53
2024/04/01 01:35:04;;;;;;;;;7.50;5.75;;;;;14.20;53.56;98878.89;113306;223;40405;-52
2024/04/01 01:37:43;;;;;;;;;14.00;7.00;;;;;14.16;53.55;98879.55;113068;224;167922;-52
2024/04/01 01:40:23;;;;;;;;;8.00;6.00;;;;;14.14;53.79;98877.61;113272;224;40315;-55
2024/04/01 01:43:00;;;;;;;;;10.00;7.00;;;;;14.11;53.79;98881.14;113082;225;168505;-56
2024/04/01 01:45:41;;;;;;;;;6.00;5.00;;;;;14.09;54.02;98880.84;113321;228;41230;-55
2024/04/01 01:48:19;;;;;;;;;9.00;6.00;;;;;14.01;54.23;98880.98;113352;225;41178;-56
2024/04/01 01:51:02;;;;;;;;;8.00;7.00;;;;;13.96;54.27;98873.80;113141;224;168303;-56
2024/04/01 01:53:46;;;;;;;;;7.00;5.00;;;;;13.91;54.29;98872.43;113391;225;41138;-55
2024/04/01 01:56:22;;;;;;;;;9.00;6.00;;;;;13.87;54.46;98873.02;113179;224;168580;-55
2024/04/01 01:59:04;;;;;;;;;9.00;6.00;;;;;13.84;54.45;98882.24;113386;224;40312;-54
2024/04/01 02:01:40;;;;;;;;;8.50;5.50;;;;;13.87;54.65;98891.84;113218;224;169294;-56
2024/04/01 02:04:17;;;;;;;;;10.33;7.33;;;;;13.89;54.72;98892.59;113423;225;41904;-51
2024/04/01 02:06:56;;;;;;;;;7.00;5.00;;;;;13.89;54.64;98894.98;113224;225;168749;-51
2024/04/01 02:09:32;;;;;;;;;6.00;4.67;;;;;13.86;54.77;98896.61;113354;224;40542;-55
2024/04/01 02:12:09;;;;;;;;;6.00;4.50;;;;;13.83;54.82;98891.68;113360;225;39644;-55
2024/04/01 02:14:47;;;;;;;;;13.00;9.00;;;;;13.83;54.83;98898.23;113166;228;168217;-55
2024/04/01 02:17:27;;;;;;;;;10.00;8.00;;;;;13.82;54.90;98902.15;113355;228;40813;-55
2024/04/01 02:20:11;;;;;;;;;6.00;4.50;;;;;13.82;55.13;98898.23;113065;228;168283;-52
2024/04/01 02:22:46;;;;;;;;;10.50;8.00;;;;;13.79;55.16;98895.52;113276;224;40116;-51
2024/04/01 02:25:20;;;;;;;;;10.00;7.00;;;;;13.77;55.11;98897.02;113121;225;169189;-55
2024/04/01 02:27:54;;;;;;;;;8.00;5.00;;;;;13.78;55.21;98900.06;113283;227;40297;-55
2024/04/01 02:30:32;;;;;;;;;9.50;6.00;;;;;13.81;55.22;98903.38;113362;228;40248;-55
2024/04/01 02:33:10;;;;;;;;;6.00;4.50;;;;;13.81;55.25;98901.73;113116;224;168498;-56
2024/04/01 02:35:48;;;;;;;;;7.00;5.00;;;;;13.79;55.33;98896.27;113353;228;40759;-51
2024/04/01 02:38:24;;;;;;;;;7.00;6.00;;;;;13.75;55.31;98892.89;113089;228;168803;-54
2024/04/01 02:41:04;;;;;;;;;7.67;6.00;;;;;13.72;55.41;98890.84;113335;224;40111;-54
2024/04/01 02:43:38;;;;;;;;;8.00;5.00;;;;;13.69;55.50;98886.06;113162;229;168494;-53
2024/04/01 02:46:16;;;;;;;;;10.50;6.50;;;;;13.69;55.67;98888.08;113306;224;42185;-54
2024/04/01 02:48:52;;;;;;;;;6.00;5.00;;;;;13.67;55.61;98882.45;113356;228;41637;-53
2024/04/01 02:51:27;;;;;;;;;9.33;6.00;;;;;13.62;55.86;98877.38;113352;225;40977;-53
2024/04/01 02:54:04;;;;;;;;;9.00;7.00;;;;;13.59;55.89;98878.48;113392;225;40600;-51
2024/04/01 02:56:42;;;;;;;;;7.00;5.00;;;;;13.55;56.07;98879.33;113176;224;168427;-51
2024/04/01 02:59:25;;;;;;;;;6.00;5.50;;;;;13.53;55.86;98879.46;113368;224;41544;-54
2024/04/01 03:02:02;;;;;;;;;5.00;4.00;;;;;13.44;56.07;98876.42;113161;225;168552;-52
2024/04/01 03:04:44;;;;;;;;;7.00;5.00;;;;;13.37;56.42;98884.75;113311;224;41268;-53
2024/04/01 03:07:19;;;;;;;;;8.00;6.00;;;;;13.31;56.62;98885.63;113110;225;168836;-52
2024/04/01 03:09:58;;;;;;;;;8.00;5.00;;;;;13.29;56.78;98881.84;113331;229;41948;-55
2024/04/01 03:12:36;;;;;;;;;10.00;6.00;;;;;13.26;56.73;98882.92;113335;228;40785;-55
2024/04/01 03:15:16;;;;;;;;;7.00;5.00;;;;;13.21;56.93;98883.86;113125;229;168533;-53
2024/04/01 03:17:54;;;;;;;;;9.00;6.00;;;;;13.15;57.10;98887.71;113276;229;40048;-54
2024/04/01 03:20:40;;;;;;;;;8.33;6.00;;;;;13.08;57.26;98889.79;113124;229;168700;-53
2024/04/01 03:23:20;;;;;;;;;8.00;4.50;;;;;13.00;57.51;98893.86;113315;224;40217;-54
2024/04/01 03:26:00;;;;;;;;;5.00;4.00;;;;;12.97;57.52;98899.42;113206;225;168556;-56
2024/04/01 03:28:38;;;;;;;;;6.00;4.00;;;;;12.93;57.82;98896.42;113346;226;40638;-57
2024/04/01 03:31:15;;;;;;;;;4.00;3.00;;;;;12.90;57.87;98891.82;113185;224;168769;-56
2024/04/01 03:33:51;;;;;;;;;7.00;6.00;;;;;12.84;58.07;98888.55;113439;224;40346;-53
2024/04/01 03:36:31;;;;;;;;;7.00;5.00;;;;;12.80;58.19;98898.54;113436;224;40610;-53
2024/04/01 03:39:08;;;;;;;;;6.00;5.00;;;;;12.74;58.46;98898.58;113231;225;168593;-54
2024/04/01 03:41:42;;;;;;;;;8.00;4.00;;;;;12.69;58.72;98897.88;113363;228;40806;-54
2024/04/01 03:44:23;;;;;;;;;10.00;6.00;;;;;12.68;58.79;98894.07;113154;228;168623;-53
2024/04/01 03:47:00;;;;;;;;;4.50;4.00;;;;;12.71;58.82;98892.16;113324;224;40152;-53
2024/04/01 03:49:38;;;;;;;;;7.00;6.00;;;;;12.66;59.01;98892.95;113106;224;168741;-54
2024/04/01 03:52:15;;;;;;;;;8.00;6.00;;;;;12.58;59.30;98896.13;113307;224;39694;-54
2024/04/01 03:54:58;;;;;;;;;5.33;4.33;;;;;12.46;59.58;98900.42;113310;225;41238;-54
2024/04/01 03:57:43;;;;;;;;;7.00;4.00;;;;;12.37;59.72;98896.97;113273;228;40442;-54
2024/04/01 04:00:19;;;;;;;;;6.00;4.00;;;;;12.31;60.01;98899.24;113272;225;42087;-52
2024/04/01 04:03:00;;;;;;;;;8.00;6.00;;;;;12.16;60.39;98897.09;113107;224;169590;-52
2024/04/01 04:05:36;;;;;;;;;7.00;5.50;;;;;12.06;60.71;98897.95;113321;225;40649;-53
2024/04/01 04:08:11;;;;;;;;;6.50;4.50;;;;;11.98;60.93;98897.52;113127;224;168807;-53
2024/04/01 04:10:52;;;;;;;;;6.00;5.00;;;;;11.88;61.23;98896.98;113358;225;40898;-53
2024/04/01 04:13:33;;;;;;;;;7.00;6.00;;;;;11.83;61.43;98890.96;113160;228;168910;-53
2024/04/01 04:16:10;;;;;;;;;4.00;3.50;;;;;11.82;61.73;98889.42;113370;224;39867;-53
2024/04/01 04:18:47;;;;;;;;;6.00;4.00;;;;;11.77;61.99;98883.56;113393;225;41034;-56
2024/04/01 04:21:23;;;;;;;;;5.00;4.00;;;;;11.70;62.26;98877.93;113149;227;39908;-56
2024/04/01 04:24:03;;;;;;;;;5.00;4.00;;;;;11.61;62.55;98879.77;113378;224;40753;-52
2024/04/01 04:26:42;;;;;;;;;8.00;5.00;;;;;11.52;62.88;98875.51;113093;224;168948;-52
2024/04/01 04:29:21;;;;;;;;;4.00;3.50;;;;;11.53;62.95;98877.69;113393;228;41461;-54
2024/04/01 04:32:09;;;;;;;;;7.00;5.00;;;;;11.60;63.27;98875.74;113115;228;168841;-56
2024/04/01 04:34:44;;;;;;;;;6.00;5.00;;;;;11.63;63.25;98868.30;113303;224;40292;-53
2024/04/01 04:37:22;;;;;;;;;6.00;5.00;;;;;11.73;63.40;98866.27;112944;224;169196;-56
2024/04/01 04:40:04;;;;;;;;;9.00;5.00;;;;;11.90;63.38;98869.86;113362;228;40333;-57
2024/04/01 04:42:44;;;;;;;;;9.00;6.00;;;;;12.04;63.34;98867.64;113330;228;40083;-56
2024/04/01 04:45:31;;;;;;;;;8.00;6.00;;;;;12.20;63.18;98870.81;113105;225;169940;-53
2024/04/01 04:48:11;;;;;;;;;13.00;8.00;;;;;12.36;62.91;98871.77;113285;225;40917;-53
2024/04/01 04:50:47;;;;;;;;;10.00;8.00;;;;;12.51;62.89;98873.33;113146;225;169146;-53
2024/04/01 04:53:27;;;;;;;;;6.00;5.00;;;;;12.68;62.52;98877.11;113308;224;40660;-53
2024/04/01 04:56:05;;;;;;;;;9.00;6.00;;;;;12.88;62.45;98878.70;113124;225;168959;-52
2024/04/01 04:58:44;;;;;;;;;9.00;6.67;;;;;13.12;62.20;98892.30;113329;224;40760;-55
2024/04/01 05:01:23;;;;;;;;;10.00;6.50;;;;;13.37;61.81;98898.02;113177;228;169192;-56
2024/04/01 05:03:58;;;;;;;;;11.00;8.00;;;;;13.65;61.54;98899.31;113343;228;39640;-52
2024/04/01 05:06:34;;;;;;;;;8.00;6.00;;;;;13.91;61.13;98904.06;113381;224;41693;-51
2024/04/01 05:09:12;;;;;;;;;8.00;5.50;;;;;14.13;60.75;98915.06;113207;224;169181;-52
2024/04/01 05:11:53;;;;;;;;;6.00;5.00;;;;;14.40;60.32;98920.66;113336;225;40796;-52
2024/04/01 05:14:30;;;;;;;;;14.00;8.00;;;;;14.61;59.78;98918.02;113129;225;169141;-52
2024/04/01 05:17:12;;;;;;;;;6.25;5.00;;;;;14.80;59.60;98917.94;113345;224;40293;-52
2024/04/01 05:19:54;;;;;;;;;10.00;7.00;;;;;15.20;58.98;98915.60;113109;225;169490;-54
2024/04/01 05:22:39;;;;;;;;;10.00;8.00;;;;;15.85;58.50;98908.86;113247;225;41949;-54
2024/04/01 05:25:16;;;;;;;;;6.67;4.67;;;;;16.70;57.34;98911.36;113145;228;169467;-52
2024/04/01 05:27:53;;;;;;;;;7.00;5.00;;;;;17.50;56.17;98912.05;113311;224;40750;-52
2024/04/01 05:30:27;;;;;;;;;7.00;5.00;;;;;18.29;54.96;98904.06;113327;224;40719;-56
2024/04/01 05:33:06;;;;;;;;;10.50;7.00;;;;;18.97;53.76;98896.02;113143;224;169335;-56
2024/04/01 05:35:44;;;;;;;;;8.00;5.00;;;;;19.47;52.26;98888.21;113325;225;41045;-52
2024/04/01 05:38:23;;;;;;;;;14.00;7.00;;;;;19.93;51.44;98887.05;113100;228;169113;-52
2024/04/01 05:41:00;;;;;;;;;9.25;6.00;;;;;20.04;50.02;98881.05;113332;224;41786;-52
2024/04/01 05:43:36;;;;;;;;;12.00;8.00;;;;;19.54;49.95;98879.34;113143;228;169201;-52
2024/04/01 05:46:12;;;;;;;;;10.00;7.33;;;;;19.11;49.64;98883.68;113355;228;39816;-54
2024/04/01 05:48:47;;;;;;;;;10.00;8.00;;;;;18.77;49.95;98887.60;113348;225;40451;-53
2024/04/01 05:51:23;;;;;;;;;8.00;5.00;;;;;18.61;49.72;98884.70;113304;228;43288;-54
2024/04/01 05:54:02;;;;;;;;;10.00;7.00;;;;;18.50;49.95;98883.87;113333;228;40706;-55
2024/04/01 05:56:42;;;;;;;;;8.75;5.50;;;;;18.32;50.37;98889.18;113087;225;169771;-55
2024/04/01 05:59:21;;;;;;;;;8.50;5.50;;;;;19.01;50.31;98881.74;113137;225;43451;-54
2024/04/01 06:02:00;;;;;;;;;8.00;6.00;;;;;20.59;48.84;98874.19;112988;225;169403;-54
2024/04/01 06:04:44;;;;;;;;;9.00;6.00;;;;;22.22;47.22;98876.48;113195;229;42944;-55
2024/04/01 06:07:23;;;;;;;;;8.00;5.00;;;;;23.43;45.92;98879.21;113153;224;169564;-56
2024/04/01 06:10:01;;;;;;;;;8.50;6.00;;;;;24.09;44.46;98871.05;113309;225;40269;-52
2024/04/01 06:12:36;;;;;;;;;8.00;5.00;;;;;24.90;42.75;98876.80;113292;228;40490;-51
2024/04/01 06:15:18;;;;;;;;;10.00;7.00;;;;;25.59;41.64;98877.77;113134;228;169892;-52
2024/04/01 06:17:56;;;;;;;;;7.00;5.00;;;;;25.65;40.56;98876.86;113254;228;39958;-52
2024/04/01 06:20:36;;;;;;;;;10.50;7.00;;;;;24.64;40.19;98866.70;113118;225;169167;-53
2024/04/01 06:23:15;;;;;;;;;11.00;7.00;;;;;24.61;39.69;98871.22;113319;228;40457;-54
2024/04/01 06:25:58;;;;;;;;;8.00;5.50;;;;;24.47;39.45;98869.60;113139;225;169276;-56
2024/04/01 06:28:36;;;;;;;;;13.00;8.00;;;;;23.53;39.26;98871.14;113336;227;41727;-52
2024/04/01 06:31:17;;;;;;;;;11.00;7.00;;;;;22.40;40.17;98868.59;113146;225;169666;-51
2024/04/01 06:33:53;;;;;;;;;7.00;5.00;;;;;21.82;41.05;98868.16;113330;228;40959;-52
2024/04/01 06:36:37;;;;;;;;;8.67;6.00;;;;;21.30;41.77;98875.86;113348;228;40587;-53
2024/04/01 06:39:18;;;;;;;;;8.00;6.00;;;;;20.87;42.37;98877.39;113195;225;169074;-53
2024/04/01 06:41:57;;;;;;;;;7.50;5.00;;;;;20.41;42.84;98876.88;113326;224;39931;-53
2024/04/01 06:44:34;;;;;;;;;9.75;7.00;;;;;20.16;42.97;98883.13;113137;224;169306;-54
2024/04/01 06:47:10;;;;;;;;;7.50;4.50;;;;;20.16;43.51;98887.30;112877;224;636931;-54
2024/04/01 06:49:51;;;;;;;;;7.00;5.00;;;;;20.13;43.97;98883.76;113151;224;169236;-52
2024/04/01 06:52:32;;;;;;;;;7.50;6.00;;;;;20.42;44.30;98885.02;113276;225;40642;-51
2024/04/01 06:55:10;;;;;;;;;10.00;7.00;;;;;20.81;44.20;98888.83;113110;224;169269;-54
2024/04/01 06:57:48;;;;;;;;;10.00;7.00;;;;;21.09;44.17;98888.11;113340;224;40166;-55
2024/04/01 07:00:24;;;;;;;;;10.33;7.00;;;;;21.30;44.19;98880.20;113281;224;41512;-53
2024/04/01 07:03:02;;;;;;;;;8.00;5.00;;;;;21.94;43.93;98875.77;113002;228;168675;-55
2024/04/01 07:05:39;;;;;;;;;6.00;4.00;;;;;22.08;42.81;98881.54;113322;225;41184;-53
2024/04/01 07:08:12;;;;;;;;;6.50;5.00;;;;;21.82;42.81;98890.80;113081;228;169277;-54
2024/04/01 07:10:49;;;;;;;;;7.50;5.00;;;;;21.70;42.90;98897.09;113186;228;40061;-55
2024/04/01 07:13:28;;;;;;;;;6.50;5.00;;;;;21.45;43.25;98899.55;113169;224;169582;-53
2024/04/01 07:16:09;;;;;;;;;8.00;5.50;;;;;21.04;43.65;98905.97;113360;224;40408;-51
2024/04/01 07:18:45;;;;;;;;;10.00;6.00;;;;;20.72;43.85;98908.59;113299;228;40041;-52
2024/04/01 07:21:20;;;;;;;;;11.00;6.00;;;;;20.40;44.01;98906.34;113109;225;169023;-52
2024/04/01 07:23:57;;;;;;;;;9.00;5.00;;;;;20.20;44.31;98903.65;113287;224;40205;-52
2024/04/01 07:26:37;;;;;;;;;7.00;5.00;;;;;20.18;44.85;98907.89;113132;225;169197;-51
2024/04/01 07:29:18;;;;;;;;;10.00;6.00;;;;;20.26;45.34;98907.58;113372;224;40912;-56
2024/04/01 07:31:54;;;;;;;;;8.50;6.00;;;;;20.18;45.57;98902.63;113183;224;169327;-55
2024/04/01 07:34:32;;;;;;;;;8.00;5.00;;;;;20.48;45.71;98903.19;113363;228;41087;-55
2024/04/01 07:37:13;;;;;;;;;4.00;3.00;;;;;21.02;45.26;98911.16;113161;224;169532;-55
2024/04/01 07:39:50;;;;;;;;;9.00;6.00;;;;;21.26;44.70;98914.05;113373;225;40529;-55
2024/04/01 07:42:42;;;;;;;;;8.00;6.00;;;;;21.47;44.60;98909.91;113358;224;40693;-56
2024/04/01 07:45:22;;;;;;;;;6.00;4.00;;;;;21.71;44.34;98898.39;113167;228;169155;-55
2024/04/01 07:48:05;;;;;;;;;8.00;6.00;;;;;22.03;44.19;98893.41;113343;228;40478;-56
2024/04/01 07:50:46;;;;;;;;;7.00;5.00;;;;;22.38;43.56;98886.45;113125;225;169103;-55
2024/04/01 07:53:23;;;;;;;;;8.00;5.00;;;;;22.34;43.20;98885.71;113337;228;39745;-54
2024/04/01 07:56:04;;;;;;;;;7.00;4.00;;;;;22.31;43.02;98875.87;113108;224;169098;-53
2024/04/01 07:58:42;;;;;;;;;6.00;4.00;;;;;22.46;42.65;98872.99;113306;224;41045;-56
2024/04/01 08:01:17;;;;;;;;;8.00;5.00;;;;;22.61;42.59;98871.00;113195;225;169222;-56
2024/04/01 08:03:55;;;;;;;;;10.00;5.00;;;;;23.15;42.31;98875.64;113336;224;40672;-56
2024/04/01 08:06:30;;;;;;;;;9.00;6.00;;;;;24.49;41.52;98868.09;113352;224;40239;-56
2024/04/01 08:09:05;;;;;;;;;5.00;4.00;;;;;25.79;40.54;98870.79;113138;224;169467;-52
2024/04/01 08:11:49;;;;;;;;;9.00;6.00;;;;;25.85;38.97;98860.81;113364;225;41330;-52
2024/04/01 08:14:24;;;;;;;;;7.00;4.00;;;;;25.51;38.79;98861.36;113154;224;169675;-52
2024/04/01 08:17:03;;;;;;;;;7.00;5.00;;;;;25.87;38.77;98860.26;113315;225;42061;-51
2024/04/01 08:19:47;;;;;;;;;10.00;6.00;;;;;25.68;38.29;98866.02;113232;228;169850;-55
2024/04/01 08:22:25;;;;;;;;;8.00;5.00;;;;;25.34;38.20;98868.73;113374;224;41162;-56
2024/04/01 08:24:59;;;;;;;;;6.00;4.00;;;;;24.81;38.30;98869.45;113348;225;40676;-51
2024/04/01 08:27:34;;;;;;;;;9.00;5.00;;;;;24.34;38.59;98861.17;113326;225;41736;-54
2024/04/01 08:30:10;;;;;;;;;6.00;4.00;;;;;24.09;39.07;98860.89;113298;225;40003;-55
2024/04/01 08:32:48;;;;;;;;;11.00;7.00;;;;;24.19;39.04;98864.58;113117;224;169054;-55
2024/04/01 08:35:27;;;;;;;;;9.00;5.00;;;;;24.30;38.85;98871.01;113282;225;39750;-54
2024/04/01 08:38:05;;;;;;;;;7.00;4.50;;;;;24.15;38.84;98880.22;113151;225;169089;-53
2024/04/01 08:41:02;;;;;;;;;7.00;4.00;;;;;24.28;38.86;98887.52;113286;225;39915;-53
2024/04/01 08:43:42;;;;;;;;;14.00;8.00;;;;;24.15;38.73;98897.08;113127;224;169551;-53
2024/04/01 08:46:21;;;;;;;;;11.00;7.50;;;;;24.42;38.81;98891.46;113314;224;41590;-53
2024/04/01 08:49:02;;;;;;;;;7.00;4.00;;;;;24.56;38.97;98886.48;113303;228;41212;-52
2024/04/01 08:51:42;;;;;;;;;5.33;4.00;;;;;24.42;38.56;98890.22;113263;224;41518;-52
2024/04/01 08:54:17;;;;;;;;;7.00;5.00;;;;;24.23;38.91;98893.56;113362;225;40385;-56
2024/04/01 08:56:52;;;;;;;;;7.00;5.00;;;;;24.06;39.13;98895.77;113127;224;169034;-55
2024/04/01 08:59:30;;;;;;;;;9.00;6.50;;;;;24.23;39.40;98900.18;113406;225;40679;-52
2024/04/01 09:02:07;;;;;;;;;7.33;4.67;;;;;24.53;38.85;98885.41;113221;225;169063;-53
2024/04/01 09:04:44;;;;;;;;;7.00;4.00;;;;;24.78;39.19;98888.20;113363;225;41325;-53
2024/04/01 09:07:20;;;;;;;;;8.00;5.00;;;;;25.50;39.10;98885.99;113231;225;169343;-58
2024/04/01 09:09:58;;;;;;;;;8.50;5.50;;;;;26.46;38.45;98881.80;113226;225;40607;-58
2024/04/01 09:12:34;;;;;;;;;9.00;6.00;;;;;27.20;37.44;98874.33;113386;225;40077;-58
2024/04/01 09:15:16;;;;;;;;;8.00;6.00;;;;;27.38;36.57;98864.59;113242;225;169399;-60
2024/04/01 09:17:51;;;;;;;;;6.67;4.00;;;;;27.01;36.42;98866.02;113390;225;41328;-56
2024/04/01 09:20:31;;;;;;;;;10.00;6.00;;;;;26.43;36.18;98866.79;113165;225;169050;-55
2024/04/01 09:23:07;;;;;;;;;8.00;5.00;;;;;26.21;36.44;98869.33;113349;225;41757;-55
2024/04/01 09:25:46;;;;;;;;;8.33;4.00;;;;;26.58;36.80;98854.39;113115;228;169361;-51
2024/04/01 09:28:31;;;;;;;;;9.00;6.00;;;;;26.62;36.49;98855.65;113326;224;40746;-52
2024/04/01 09:31:13;;;;;;;;;;;;;;;26.20;36.23;98859.32;113094;228;168944;-54
2024/04/01 09:33:49;;;;;;;;;5.33;4.00;;;;;26.17;36.05;98865.57;113208;229;41200;-54
2024/04/01 09:36:26;;;;;;;;;7.00;5.00;;;;;26.68;36.52;98859.70;113342;224;41068;-55
2024/04/01 09:39:00;;;;;;;;;8.00;6.00;;;;;26.92;36.08;98854.80;113175;228;169145;-51
2024/04/01 09:41:35;;;;;;;;;8.00;6.00;;;;;26.71;35.56;98851.92;113349;225;40316;-52
2024/04/01 09:44:18;;;;;;;;;11.00;6.00;;;;;26.59;36.10;98842.73;113155;228;169085;-52
2024/04/01 09:46:58;;;;;;;;;8.67;6.00;;;;;26.39;36.13;98840.97;113383;225;41648;-54
2024/04/01 09:49:36;;;;;;;;;12.00;8.00;;;;;26.12;36.69;98836.27;113265;229;169301;-54
2024/04/01 09:52:21;;;;;;;;;12.00;6.00;;;;;26.11;36.66;98833.20;113330;224;39885;-53
2024/04/01 09:55:06;;;;;;;;;8.00;6.00;;;;;25.99;36.10;98839.61;113393;224;40460;-53
2024/04/01 09:58:36;;;;;;;;;12.00;7.00;;;;;25.69;36.48;98840.38;113323;228;41516;-54
2024/04/01 10:01:35;;;;;;;;;13.00;8.00;;;;;25.43;36.88;98846.90;113107;225;169386;-53
2024/04/01 10:04:46;;;;;;;;;8.00;5.50;;;;;25.29;37.48;98849.48;113307;224;40072;-52
2024/04/01 10:08:06;;;;;;;;;9.00;7.00;;;;;25.57;37.60;98842.98;113118;227;169635;-53
2024/04/01 10:11:13;;;;;;;;;10.00;6.00;;;;;25.51;37.41;98835.42;113308;224;39778;-55
2024/04/01 10:14:36;;;;;;;;;11.00;8.00;;;;;25.25;37.38;98832.16;113146;224;169419;-54
2024/04/01 10:17:51;;;;;;;;;14.00;8.00;;;;;25.04;37.90;98822.70;113297;224;40437;-53
2024/04/01 10:21:09;;;;;;;;;9.00;6.00;;;;;24.87;38.17;98822.52;113179;224;168957;-55
2024/04/01 10:24:23;;;;;;;;;12.00;6.00;;;;;24.85;37.97;98820.84;113283;225;40145;-56
2024/04/01 10:27:54;;;;;;;;;15.00;8.00;;;;;24.70;37.58;98813.69;113118;225;169210;-55
2024/04/01 10:31:20;;;;;;;;;18.00;10.00;;;;;24.68;37.58;98809.88;113104;225;40172;-49
2024/04/01 10:34:36;;;;;;;;;11.00;8.00;;;;;24.80;37.82;98801.41;113038;226;40008;-51
2024/04/01 10:37:44;;;;;;;;;11.50;6.50;;;;;25.03;37.58;98798.42;113172;224;169492;-51
2024/04/01 10:40:45;;;;;;;;;10.33;6.67;;;;;25.05;37.83;98795.14;113291;229;40601;-51
2024/04/01 10:44:02;;;;;;;;;10.50;6.00;;;;;25.30;38.10;98788.56;113008;229;169470;-50
2024/04/01 10:47:29;;;;;;;;;8.00;6.00;;;;;25.31;37.74;98776.98;113302;224;40226;-52
2024/04/01 10:50:57;;;;;;;;;12.50;7.50;;;;;25.20;37.42;98779.16;112914;225;169010;-50
2024/04/01 10:54:04;;;;;;;;;13.00;9.00;;;;;25.33;37.49;98781.73;113290;224;40410;-52
2024/04/01 10:57:33;;;;;;;;;14.00;8.00;;;;;25.12;37.18;98782.10;113069;228;169469;-50
2024/04/01 11:00:38;;;;;;;;;10.67;6.67;;;;;24.97;37.42;98777.87;113261;228;41074;-54
2024/04/01 11:04:06;;;;;;;;;9.00;5.50;;;;;25.04;37.52;98786.55;113208;225;169279;-52
2024/04/01 11:07:03;;;;;;;;;8.67;6.00;;;;;25.37;37.82;98782.79;113270;229;40907;-53
2024/04/01 11:09:59;;;;;;;;;12.67;6.00;;;;;25.76;37.70;98783.98;113060;228;42591;-54
2024/04/01 11:12:48;;;;;;;;;9.00;6.00;;;;;25.93;36.87;98780.76;113196;226;39922;-49
2024/04/01 11:15:26;;;;;;;;;9.00;5.00;;;;;25.99;36.94;98780.09;113104;228;169125;-52
2024/04/01 11:18:20;;;;;;;;;11.00;7.00;;;;;25.82;36.89;98773.15;113327;229;40927;-53
2024/04/01 11:21:13;;;;;;;;;15.00;8.00;;;;;25.69;36.65;98768.16;113140;228;169486;-55
2024/04/01 11:24:10;;;;;;;;;8.50;5.00;;;;;25.54;36.58;98765.84;113376;229;40106;-51
2024/04/01 11:27:14;;;;;;;;;10.00;6.00;;;;;25.33;36.05;98763.42;113164;228;169344;-52
2024/04/01 11:30:16;;;;;;;;;7.00;5.00;;;;;25.18;36.39;98756.10;113296;225;39915;-52
2024/04/01 11:33:04;;;;;;;;;7.50;4.00;;;;;25.21;36.57;98753.50;113166;224;169138;-54
2024/04/01 11:35:54;;;;;;;;;13.00;8.00;;;;;25.25;36.68;98754.45;113357;225;41619;-54
2024/04/01 11:38:48;;;;;;;;;11.00;6.00;;;;;25.34;36.87;98747.02;113179;225;169372;-52
2024/04/01 11:41:35;;;;;;;;;10.00;6.00;;;;;25.38;36.57;98744.91;113298;228;41060;-53
2024/04/01 11:44:11;;;;;;;;;9.00;5.50;;;;;25.23;36.69;98740.23;113142;224;169249;-50
2024/04/01 11:46:53;;;;;;;;;10.00;6.50;;;;;25.09;36.87;98736.59;113317;228;41112;-50
2024/04/01 11:49:38;;;;;;;;;8.00;6.00;;;;;24.86;36.34;98745.04;113117;225;169828;-53
2024/04/01 11:52:20;;;;;;;;;14.00;8.00;;;;;24.58;36.76;98737.86;113278;224;40379;-54
2024/04/01 11:55:13;;;;;;;;;12.00;6.00;;;;;24.43;37.15;98730.57;113289;228;40497;-50
2024/04/01 11:57:53;;;;;;;;;8.50;5.00;;;;;24.44;37.47;98728.69;113304;225;41320;-51
2024/04/01 12:00:38;;;;;;;;;8.00;6.00;;;;;24.39;37.71;98717.51;113293;225;40256;-52
2024/04/01 12:03:18;;;;;;;;;10.00;5.00;;;;;24.48;37.67;98726.29;113119;228;169093;-53
2024/04/01 12:06:04;;;;;;;;;13.00;8.00;;;;;24.59;37.47;98722.73;113349;225;39966;-52
2024/04/01 12:08:52;;;;;;;;;12.50;7.00;;;;;24.63;37.32;98712.52;113126;224;169348;-52
2024/04/01 12:11:32;;;;;;;;;8.00;5.00;;;;;24.72;37.55;98705.67;113330;225;41739;-53
2024/04/01 12:14:11;;;;;;;;;6.00;5.00;;;;;24.89;37.39;98704.36;113146;228;169237;-54
2024/04/01 12:16:49;;;;;;;;;10.00;6.00;;;;;24.93;37.29;98705.83;113294;228;40436;-55
2024/04/01 12:19:33;;;;;;;;;9.00;5.00;;;;;24.99;37.18;98706.65;113223;225;169382;-53
2024/04/01 12:22:09;;;;;;;;;8.50;5.50;;;;;25.15;36.85;98711.58;113170;226;40294;-52
2024/04/01 12:24:55;;;;;;;;;9.33;6.00;;;;;25.30;36.78;98705.52;113331;228;41416;-53
2024/04/01 12:27:38;;;;;;;;;11.00;7.00;;;;;25.44;36.70;98697.25;113144;224;168852;-54
2024/04/01 12:30:16;;;;;;;;;9.00;6.00;;;;;25.46;36.60;98698.59;113301;225;40010;-50
2024/04/01 12:32:56;;;;;;;;;10.00;6.00;;;;;25.52;36.65;98695.90;113122;225;168872;-50
2024/04/01 12:35:31;;;;;;;;;12.50;7.50;;;;;25.40;36.57;98691.98;113308;225;41964;-54
2024/04/01 12:38:13;;;;;;;;;13.00;8.00;;;;;25.26;36.31;98688.19;113106;225;169794;-52